createdAt,value
2023-03-23T15:58:17.905Z,4.97
2023-03-23T16:00:46.534Z,3.85
2023-03-23T16:03:24.353Z,6.55
2023-03-23T16:05:52.037Z,4.10
2023-03-23T16:08:19.089Z,6.15
2023-03-23T16:10:46.449Z,9.00
2023-03-23T16:13:13.506Z,6.45
2023-03-23T16:15:41.118Z,6.28
2023-03-23T16:18:16.236Z,4.88
2023-03-23T16:20:43.844Z,5.75
2023-03-23T16:23:11.132Z,7.80
2023-03-23T16:25:41.048Z,5.03
2023-03-23T16:28:12.255Z,7.43
2023-03-23T16:30:40.066Z,6.03
2023-03-23T16:33:07.381Z,5.18
2023-03-23T16:35:35.923Z,5.07
2023-03-23T16:38:07.518Z,5.25
2023-03-23T16:40:37.973Z,6.28
2023-03-23T16:43:08.643Z,5.82
2023-03-23T16:45:40.021Z,5.78
2023-03-23T16:48:09.906Z,4.68
2023-03-23T16:50:38.135Z,5.45
2023-03-23T16:53:08.355Z,5.60
2023-03-23T17:00:34.572Z,8.07
2023-03-23T17:03:02.126Z,6.38
2023-03-23T17:05:30.089Z,5.55
2023-03-23T17:07:57.936Z,5.47
2023-03-23T17:10:27.856Z,5.15
2023-03-23T17:12:55.956Z,6.97
2023-03-23T17:15:25.713Z,6.55
2023-03-23T17:17:54.023Z,5.68
2023-03-23T17:20:21.622Z,6.10
2023-03-23T17:22:48.790Z,7.95
2023-03-23T17:25:15.935Z,7.13
2023-03-23T17:27:43.148Z,6.15
2023-03-23T17:30:11.346Z,5.80
2023-03-23T17:32:39.250Z,5.03
2023-03-23T17:35:07.118Z,5.95
2023-03-23T17:37:34.786Z,4.95
2023-03-23T17:40:01.977Z,5.90
2023-03-23T17:42:30.171Z,5.85
2023-03-23T17:44:57.190Z,6.05
2023-03-23T17:47:24.277Z,6.05
2023-03-23T17:49:51.643Z,7.55
2023-03-23T17:52:18.713Z,7.55
2023-03-23T17:54:45.889Z,7.18
2023-03-23T17:57:12.859Z,6.45
2023-03-23T17:59:40.028Z,7.88
2023-03-23T18:02:07.469Z,6.35
2023-03-23T18:04:34.605Z,7.43
2023-03-23T18:07:01.697Z,8.90
2023-03-23T18:09:28.916Z,6.70
2023-03-23T18:11:56.899Z,9.05
2023-03-23T18:14:24.090Z,7.53
2023-03-23T18:16:51.199Z,6.00
2023-03-23T18:19:18.494Z,7.30
2023-03-23T18:21:46.126Z,11.18
2023-03-23T18:24:13.599Z,8.55
2023-03-23T18:26:41.406Z,8.10
2023-03-23T18:29:08.381Z,7.65
2023-03-23T18:31:40.143Z,7.15
2023-03-23T18:34:07.819Z,6.95
2023-03-23T18:36:34.955Z,8.25
2023-03-23T18:39:02.568Z,7.80
2023-03-23T18:41:29.806Z,6.13
2023-03-23T18:43:57.802Z,9.73
2023-03-23T18:46:25.651Z,6.22
2023-03-23T18:48:52.874Z,7.80
2023-03-23T18:51:20.045Z,8.20
2023-03-23T18:53:47.074Z,7.30
2023-03-23T18:56:17.388Z,7.13
2023-03-23T19:01:16.230Z,8.30
2023-03-23T19:03:43.910Z,8.65
2023-03-23T19:06:16.813Z,7.75
2023-03-23T19:08:45.458Z,8.55
2023-03-23T19:11:13.416Z,10.32
2023-03-23T19:13:47.062Z,10.73
2023-03-23T19:16:22.055Z,8.90
2023-03-23T19:18:49.444Z,10.07
2023-03-23T19:21:19.712Z,8.55
2023-03-23T19:23:49.723Z,9.75
2023-03-23T19:26:24.006Z,10.85
2023-03-23T19:31:25.046Z,8.63
2023-03-23T19:33:53.550Z,8.38
2023-03-23T19:36:23.024Z,13.20
2023-03-23T19:38:50.883Z,9.30
2023-03-23T19:41:19.197Z,9.45
2023-03-23T19:43:46.839Z,9.60
2023-03-23T19:46:14.638Z,11.20
2023-03-23T19:48:41.951Z,9.35
2023-03-23T19:51:11.499Z,10.02
2023-03-23T19:53:39.587Z,11.67
2023-03-23T19:56:12.773Z,13.23
2023-03-23T19:58:39.993Z,11.80
2023-03-23T20:01:07.772Z,11.48
2023-03-23T20:03:36.240Z,11.45
2023-03-23T20:06:11.126Z,9.50
2023-03-23T20:08:43.800Z,14.90
2023-03-23T20:11:13.569Z,14.43
2023-03-23T20:13:41.601Z,20.65
2023-03-23T20:16:09.565Z,21.48
2023-03-23T20:18:38.125Z,17.02
2023-03-23T20:21:11.563Z,13.60
2023-03-23T20:23:39.739Z,15.10
2023-03-23T20:26:13.338Z,11.70
2023-03-23T20:28:40.873Z,12.82
2023-03-23T20:31:21.149Z,12.30
2023-03-23T20:34:08.679Z,14.13
2023-03-23T20:36:42.388Z,12.68
2023-03-23T20:39:12.787Z,12.77
2023-03-23T20:44:14.240Z,15.18
2023-03-23T20:46:47.893Z,15.10
2023-03-23T20:49:16.081Z,14.77
2023-03-23T20:51:43.872Z,12.82
2023-03-23T20:54:14.258Z,15.07
2023-03-23T20:59:10.180Z,17.60
2023-03-23T21:01:40.108Z,13.90
2023-03-23T21:04:15.087Z,12.85
2023-03-23T21:06:43.931Z,12.27
2023-03-23T21:09:11.725Z,12.68
2023-03-23T21:11:39.394Z,12.85
2023-03-23T21:14:06.846Z,16.02
2023-03-23T21:16:34.390Z,15.52
2023-03-23T21:19:02.532Z,11.30
2023-03-23T21:21:29.632Z,13.07
2023-03-23T21:23:57.694Z,12.40
2023-03-23T21:26:29.030Z,14.52
2023-03-23T21:29:00.046Z,13.50
2023-03-23T21:31:33.366Z,13.80
2023-03-23T21:34:01.422Z,13.27
2023-03-23T21:36:29.410Z,13.00
2023-03-23T21:38:56.882Z,12.63
2023-03-23T21:41:24.541Z,15.18
2023-03-23T21:43:51.892Z,14.60
2023-03-23T21:46:19.151Z,17.58
2023-03-23T21:48:51.720Z,11.88
2023-03-23T21:51:24.521Z,14.30
2023-03-23T21:53:54.455Z,15.23
2023-03-23T21:56:23.945Z,13.40
2023-03-23T21:58:51.760Z,14.07
2023-03-23T22:01:19.524Z,13.00
2023-03-23T22:03:47.068Z,14.68
2023-03-23T22:06:21.241Z,13.82
2023-03-23T22:08:48.337Z,12.30
2023-03-23T22:11:18.909Z,14.20
2023-03-23T22:13:46.650Z,12.38
2023-03-23T22:16:17.880Z,12.10
2023-03-23T22:18:46.515Z,12.88
2023-03-23T22:21:15.654Z,13.77
2023-03-23T22:23:44.281Z,12.45
2023-03-23T22:26:12.538Z,17.38
2023-03-23T22:28:40.595Z,14.10
2023-03-23T22:31:13.099Z,14.82
2023-03-23T22:33:40.546Z,19.98
2023-03-23T22:36:08.445Z,16.67
2023-03-23T22:38:37.504Z,20.05
2023-03-23T22:41:07.170Z,21.08
2023-03-23T22:43:35.645Z,18.20
2023-03-23T22:46:03.334Z,20.58
2023-03-23T22:48:31.078Z,12.18
2023-03-23T22:50:58.703Z,12.50
2023-03-23T22:53:26.018Z,14.93
2023-03-23T22:55:55.719Z,14.50
2023-03-23T22:58:23.363Z,14.43
2023-03-23T23:00:59.590Z,14.27
2023-03-23T23:03:27.938Z,16.20
2023-03-23T23:05:56.618Z,13.15
2023-03-23T23:08:25.146Z,17.15
2023-03-23T23:10:54.813Z,12.88
2023-03-23T23:13:22.629Z,13.23
2023-03-23T23:15:52.541Z,14.93
2023-03-23T23:18:20.712Z,15.85
2023-03-23T23:20:54.877Z,14.68
2023-03-23T23:23:24.033Z,18.88
2023-03-23T23:25:52.357Z,16.60
2023-03-23T23:28:20.867Z,15.50
2023-03-23T23:30:48.686Z,14.57
2023-03-23T23:33:16.188Z,16.55
2023-03-23T23:35:43.319Z,16.73
2023-03-23T23:38:12.746Z,16.05
2023-03-23T23:40:44.306Z,17.13
2023-03-23T23:43:13.458Z,15.70
2023-03-23T23:45:41.014Z,13.80
2023-03-23T23:48:08.612Z,15.75
2023-03-23T23:50:36.462Z,15.73
2023-03-23T23:53:05.039Z,13.93
2023-03-23T23:55:32.640Z,15.05
2023-03-23T23:57:59.851Z,14.80
